createdAt,value
2023-04-14T00:04:55.481Z,86.91
2023-04-14T00:09:59.746Z,87.14
2023-04-14T00:15:03.779Z,86.72
2023-04-14T00:20:09.210Z,86.94
2023-04-14T00:25:13.385Z,86.60
2023-04-14T00:30:17.570Z,86.57
2023-04-14T00:35:22.164Z,86.84
2023-04-14T00:40:27.528Z,86.77
2023-04-14T00:45:32.146Z,86.77
2023-04-14T00:50:36.222Z,86.86
2023-04-14T00:55:42.123Z,86.95
2023-04-14T01:00:46.900Z,87.05
2023-04-14T01:05:51.873Z,86.72
2023-04-14T01:11:39.003Z,86.34
2023-04-14T01:16:46.006Z,86.17
2023-04-14T01:21:57.841Z,86.09
2023-04-14T01:27:19.898Z,85.48
2023-04-14T01:32:27.225Z,85.37
2023-04-14T01:37:42.177Z,84.22
2023-04-14T01:42:53.699Z,84.17
2023-04-14T01:47:59.297Z,83.79
2023-04-14T01:53:07.464Z,83.84
2023-04-14T01:58:12.518Z,84.01
2023-04-14T02:03:20.677Z,84.36
2023-04-14T02:08:25.383Z,84.15
2023-04-14T02:13:32.087Z,84.31
2023-04-14T02:18:56.051Z,83.65
2023-04-14T02:24:01.110Z,83.41
2023-04-14T02:29:15.196Z,83.43
2023-04-14T02:34:26.313Z,82.92
2023-04-14T02:39:42.826Z,82.05
2023-04-14T02:44:52.702Z,82.07
2023-04-14T02:50:00.735Z,81.60
2023-04-14T02:55:08.556Z,81.23
2023-04-14T03:00:15.882Z,81.87
2023-04-14T03:05:26.416Z,81.94
2023-04-14T03:10:41.900Z,82.04
2023-04-14T03:15:50.063Z,81.59
2023-04-14T03:20:56.722Z,81.35
2023-04-14T03:26:03.774Z,80.55
2023-04-14T03:31:11.173Z,80.57
2023-04-14T03:36:24.338Z,80.94
2023-04-14T03:41:35.268Z,80.07
2023-04-14T03:46:39.401Z,79.46
2023-04-14T03:51:46.512Z,78.52
2023-04-14T03:56:52.439Z,77.56
2023-04-14T04:01:57.114Z,77.29
2023-04-14T04:07:01.546Z,76.74
2023-04-14T04:12:06.794Z,76.38
2023-04-14T04:17:17.066Z,75.73
2023-04-14T04:22:23.988Z,76.33
2023-04-14T04:27:30.207Z,76.13
2023-04-14T04:32:43.100Z,75.16
2023-04-14T04:37:50.746Z,75.29
2023-04-14T04:42:54.670Z,74.80
2023-04-14T04:47:58.794Z,74.93
2023-04-14T04:53:02.905Z,74.93
2023-04-14T04:58:06.777Z,75.17
2023-04-14T05:03:10.749Z,75.51
2023-04-14T05:08:15.398Z,75.18
2023-04-14T05:13:20.438Z,74.61
2023-04-14T05:18:24.304Z,74.89
2023-04-14T05:23:28.344Z,74.24
2023-04-14T05:28:32.642Z,73.92
2023-04-14T05:33:36.853Z,73.49
2023-04-14T05:38:41.013Z,73.19
2023-04-14T05:43:44.825Z,73.11
2023-04-14T05:48:48.801Z,72.46
2023-04-14T05:53:52.794Z,71.72
2023-04-14T05:58:56.927Z,72.26
2023-04-14T06:04:01.309Z,70.85
2023-04-14T06:09:05.705Z,70.27
2023-04-14T06:14:10.825Z,69.24
2023-04-14T06:19:15.364Z,67.96
2023-04-14T06:24:19.639Z,64.26
2023-04-14T06:30:19.481Z,62.77
2023-04-14T06:36:00.574Z,60.69
2023-04-14T06:41:04.423Z,59.49
2023-04-14T06:46:08.370Z,58.81
2023-04-14T06:51:13.153Z,58.52
2023-04-14T06:56:17.547Z,58.36
2023-04-14T07:01:21.682Z,58.32
2023-04-14T07:06:25.659Z,57.04
2023-04-14T07:11:31.152Z,57.15
2023-04-14T07:16:35.020Z,55.76
2023-04-14T07:21:38.963Z,55.90
2023-04-14T07:26:45.052Z,55.92
2023-04-14T07:31:49.005Z,55.78
2023-04-14T07:36:53.138Z,54.90
2023-04-14T07:41:59.261Z,54.92
2023-04-14T07:47:03.246Z,53.89
2023-04-14T07:52:07.124Z,53.08
2023-04-14T07:57:11.660Z,52.73
2023-04-14T08:02:15.947Z,52.92
2023-04-14T08:07:20.908Z,54.00
2023-04-14T08:12:25.949Z,52.43
2023-04-14T08:17:29.874Z,54.96
2023-04-14T08:22:33.708Z,57.89
2023-04-14T08:27:38.111Z,61.28
2023-04-14T08:32:42.689Z,66.14
2023-04-14T08:37:46.853Z,69.90
2023-04-14T08:42:52.950Z,70.29
2023-04-14T08:47:59.066Z,74.76
2023-04-14T08:53:04.909Z,75.97
2023-04-14T08:58:11.605Z,76.62
2023-04-14T09:03:16.085Z,76.29
2023-04-14T09:08:21.153Z,74.46
2023-04-14T09:13:28.540Z,74.11
2023-04-14T09:18:34.453Z,71.82
2023-04-14T09:23:43.457Z,70.72
2023-04-14T09:28:48.071Z,69.98
2023-04-14T09:33:53.685Z,69.87
2023-04-14T09:38:57.859Z,70.36
2023-04-14T09:44:11.119Z,69.69
2023-04-14T09:49:15.554Z,70.28
2023-04-14T09:54:27.238Z,66.55
2023-04-14T09:59:39.168Z,66.45
2023-04-14T10:04:43.318Z,71.72
2023-04-14T10:09:49.681Z,73.72
2023-04-14T10:14:53.705Z,73.42
2023-04-14T10:19:57.823Z,72.83
2023-04-14T10:25:02.520Z,72.79
2023-04-14T10:30:09.654Z,73.58
2023-04-14T10:35:18.321Z,73.69
2023-04-14T10:40:23.325Z,72.76
2023-04-14T10:45:27.483Z,72.48
2023-04-14T10:50:47.291Z,72.08
2023-04-14T10:55:58.493Z,70.72
2023-04-14T11:01:24.208Z,71.20
2023-04-14T11:07:00.524Z,70.46
2023-04-14T11:12:28.666Z,70.40
2023-04-14T11:17:34.698Z,70.51
2023-04-14T11:22:44.741Z,69.87
2023-04-14T11:27:49.661Z,69.45
2023-04-14T11:32:57.899Z,69.53
2023-04-14T11:38:02.813Z,70.01
2023-04-14T11:43:07.371Z,70.32
2023-04-14T11:48:13.386Z,68.78
2023-04-14T11:53:19.793Z,68.97
2023-04-14T11:58:26.254Z,68.69
2023-04-14T12:03:36.459Z,68.23
2023-04-14T12:08:40.622Z,66.71
2023-04-14T12:13:46.140Z,68.23
2023-04-14T12:18:50.962Z,68.81
2023-04-14T12:23:56.199Z,66.36
2023-04-14T12:29:01.515Z,65.47
2023-04-14T12:34:07.030Z,66.00
2023-04-14T12:39:11.044Z,66.20
2023-04-14T12:44:25.025Z,66.41
2023-04-14T12:49:37.581Z,65.64
2023-04-14T12:54:49.750Z,65.54
2023-04-14T12:59:53.818Z,66.30
2023-04-14T13:04:58.315Z,66.40
2023-04-14T13:10:03.454Z,66.39
2023-04-14T13:15:08.275Z,65.21
2023-04-14T13:20:13.835Z,65.48
2023-04-14T13:25:17.709Z,65.85
2023-04-14T13:30:21.928Z,65.06
2023-04-14T13:35:26.476Z,65.30
2023-04-14T13:40:30.507Z,65.94
2023-04-14T13:45:34.691Z,66.92
2023-04-14T13:50:39.758Z,67.60
2023-04-14T13:55:43.859Z,66.97
2023-04-14T14:00:47.718Z,66.81
2023-04-14T14:05:52.203Z,66.21
2023-04-14T14:10:56.126Z,66.44
2023-04-14T14:16:00.895Z,66.42
2023-04-14T14:21:05.410Z,66.43
2023-04-14T14:26:13.399Z,67.02
2023-04-14T14:31:18.522Z,67.23
2023-04-14T14:36:22.927Z,67.16
2023-04-14T14:41:26.862Z,66.59
2023-04-14T14:46:32.898Z,67.54
2023-04-14T14:51:36.795Z,67.59
2023-04-14T14:56:40.940Z,68.11
2023-04-14T15:01:47.000Z,67.75
2023-04-14T15:06:51.102Z,67.20
2023-04-14T15:11:55.328Z,67.09
2023-04-14T15:16:59.355Z,67.51
2023-04-14T15:22:04.266Z,67.14
2023-04-14T15:27:08.250Z,66.82
2023-04-14T15:32:13.111Z,66.68
2023-04-14T15:37:16.956Z,66.23
2023-04-14T15:42:21.073Z,67.08
2023-04-14T15:47:24.950Z,66.60
2023-04-14T15:52:28.974Z,66.77
2023-04-14T15:57:33.041Z,66.80
2023-04-14T16:02:37.862Z,67.54
2023-04-14T16:07:43.195Z,68.14
2023-04-14T16:12:48.525Z,68.21
2023-04-14T16:17:53.035Z,68.10
2023-04-14T16:22:56.930Z,68.57
2023-04-14T16:28:00.941Z,68.42
2023-04-14T16:33:05.128Z,67.41
2023-04-14T16:38:09.199Z,67.34
2023-04-14T16:43:14.667Z,67.39
2023-04-14T16:48:19.505Z,67.25
2023-04-14T16:53:23.694Z,67.41
2023-04-14T16:58:27.682Z,67.01
2023-04-14T17:03:32.087Z,66.91
2023-04-14T17:08:35.999Z,67.74
2023-04-14T17:13:41.932Z,68.14
2023-04-14T17:18:46.027Z,67.87
2023-04-14T17:23:50.030Z,67.79
2023-04-14T17:28:54.091Z,68.74
2023-04-14T17:33:58.421Z,69.08
2023-04-14T17:39:03.144Z,69.45
2023-04-14T17:44:07.098Z,69.93
2023-04-14T17:49:11.177Z,69.99
2023-04-14T17:54:15.048Z,70.37
2023-04-14T17:59:19.444Z,70.13
2023-04-14T18:04:23.857Z,70.31
2023-04-14T18:09:28.869Z,70.41
2023-04-14T18:14:34.164Z,70.20
2023-04-14T18:19:38.339Z,69.64
2023-04-14T18:29:52.157Z,69.49
2023-04-14T18:34:56.309Z,70.12
2023-04-14T18:40:00.432Z,69.94
2023-04-14T18:45:05.350Z,70.33
2023-04-14T18:50:10.029Z,70.61
2023-04-14T18:55:14.324Z,70.15
2023-04-14T19:00:18.280Z,69.94
2023-04-14T19:05:23.480Z,70.16
2023-04-14T19:10:28.434Z,70.42
2023-04-14T19:15:32.716Z,70.44
2023-04-14T19:20:36.950Z,70.80
2023-04-14T19:25:43.277Z,70.54
2023-04-14T19:30:47.223Z,70.67
2023-04-14T19:35:51.627Z,70.60
2023-04-14T19:40:55.453Z,70.99
2023-04-14T19:46:04.285Z,70.97
2023-04-14T19:51:08.790Z,69.45
2023-04-14T19:56:13.519Z,68.75
2023-04-14T20:01:17.388Z,68.63
2023-04-14T20:06:22.031Z,68.69
2023-04-14T20:11:28.936Z,67.86
2023-04-14T20:16:33.385Z,67.60
2023-04-14T20:21:37.452Z,68.44
2023-04-14T20:26:44.306Z,67.85
2023-04-14T20:31:48.939Z,67.96
2023-04-14T20:36:54.310Z,68.14
2023-04-14T20:41:58.128Z,67.88
2023-04-14T20:47:02.527Z,67.74
2023-04-14T20:52:07.954Z,68.30
2023-04-14T20:57:13.070Z,68.47
2023-04-14T21:02:17.164Z,69.48
2023-04-14T21:07:21.349Z,69.70
2023-04-14T21:12:25.307Z,70.06
2023-04-14T21:17:40.758Z,70.68
2023-04-14T21:22:46.238Z,70.76
2023-04-14T21:27:50.149Z,71.08
2023-04-14T21:32:54.231Z,71.19
2023-04-14T21:37:58.235Z,71.74
2023-04-14T21:43:03.019Z,71.71
2023-04-14T21:48:07.046Z,72.44
2023-04-14T21:53:11.018Z,72.57
2023-04-14T21:58:15.095Z,72.72
2023-04-14T22:03:19.006Z,73.13
2023-04-14T22:08:25.451Z,73.44
2023-04-14T22:13:29.264Z,72.90
2023-04-14T22:18:33.423Z,73.89
2023-04-14T22:23:39.198Z,73.49
2023-04-14T22:28:43.271Z,73.43
2023-04-14T22:33:47.246Z,73.71
2023-04-14T22:38:51.439Z,73.10
2023-04-14T22:43:55.203Z,73.38
2023-04-14T22:48:59.528Z,73.65
2023-04-14T22:54:05.349Z,73.78
2023-04-14T22:59:09.329Z,73.86
2023-04-14T23:04:13.409Z,74.44
2023-04-14T23:09:17.440Z,74.41
2023-04-14T23:14:21.399Z,74.95
2023-04-14T23:19:25.276Z,75.11
2023-04-14T23:24:29.543Z,74.73
2023-04-14T23:29:33.498Z,75.22
2023-04-14T23:34:38.611Z,75.43
2023-04-14T23:39:42.653Z,75.92
2023-04-14T23:44:46.529Z,75.66
2023-04-14T23:49:50.451Z,75.41
2023-04-14T23:54:54.580Z,75.69
2023-04-14T23:59:58.528Z,75.38
